sensor_id;sensor_type;location;lat;lon;timestamp;temperature;humidity
35497;DHT22;21609;49.298;6.844;2022-11-02T00:00:51;20.50;59.90
35497;DHT22;21609;49.298;6.844;2022-11-02T00:03:16;20.50;59.90
35497;DHT22;21609;49.298;6.844;2022-11-02T00:05:42;20.50;59.90
35497;DHT22;21609;49.298;6.844;2022-11-02T00:08:07;20.50;59.90
35497;DHT22;21609;49.298;6.844;2022-11-02T00:10:33;20.50;59.90
35497;DHT22;21609;49.298;6.844;2022-11-02T00:12:59;20.50;59.90
35497;DHT22;21609;49.298;6.844;2022-11-02T00:15:27;20.50;59.90
35497;DHT22;21609;49.298;6.844;2022-11-02T00:17:54;20.50;59.90
35497;DHT22;21609;49.298;6.844;2022-11-02T00:20:21;20.50;59.90
35497;DHT22;21609;49.298;6.844;2022-11-02T00:22:49;20.50;59.90
35497;DHT22;21609;49.298;6.844;2022-11-02T00:25:17;20.50;59.90
35497;DHT22;21609;49.298;6.844;2022-11-02T00:27:44;20.50;59.90
35497;DHT22;21609;49.298;6.844;2022-11-02T00:30:09;20.50;59.90
35497;DHT22;21609;49.298;6.844;2022-11-02T00:32:35;20.40;59.80
35497;DHT22;21609;49.298;6.844;2022-11-02T00:35:01;20.50;59.90
35497;DHT22;21609;49.298;6.844;2022-11-02T00:37:26;20.40;59.90
35497;DHT22;21609;49.298;6.844;2022-11-02T00:39:52;20.40;59.80
35497;DHT22;21609;49.298;6.844;2022-11-02T00:42:17;20.40;59.80
35497;DHT22;21609;49.298;6.844;2022-11-02T00:44:43;20.40;59.80
35497;DHT22;21609;49.298;6.844;2022-11-02T00:47:09;20.40;59.80
35497;DHT22;21609;49.298;6.844;2022-11-02T00:49:36;20.40;59.90
35497;DHT22;21609;49.298;6.844;2022-11-02T00:52:02;20.40;59.90
35497;DHT22;21609;49.298;6.844;2022-11-02T00:54:28;20.40;59.80
35497;DHT22;21609;49.298;6.844;2022-11-02T00:56:54;20.40;59.80
35497;DHT22;21609;49.298;6.844;2022-11-02T00:59:19;20.40;59.90
35497;DHT22;21609;49.298;6.844;2022-11-02T01:01:45;20.40;59.90
35497;DHT22;21609;49.298;6.844;2022-11-02T01:04:15;20.40;59.90
35497;DHT22;21609;49.298;6.844;2022-11-02T01:06:43;20.30;59.80
35497;DHT22;21609;49.298;6.844;2022-11-02T01:09:10;20.40;59.90
35497;DHT22;21609;49.298;6.844;2022-11-02T01:11:36;20.40;59.80
35497;DHT22;21609;49.298;6.844;2022-11-02T01:14:02;20.40;59.90
35497;DHT22;21609;49.298;6.844;2022-11-02T01:16:28;20.40;59.90
35497;DHT22;21609;49.298;6.844;2022-11-02T01:18:54;20.30;59.80
35497;DHT22;21609;49.298;6.844;2022-11-02T01:21:21;20.30;59.80
35497;DHT22;21609;49.298;6.844;2022-11-02T01:23:47;20.30;59.80
35497;DHT22;21609;49.298;6.844;2022-11-02T01:26:13;20.30;59.80
35497;DHT22;21609;49.298;6.844;2022-11-02T01:28:39;20.30;59.80
35497;DHT22;21609;49.298;6.844;2022-11-02T01:31:05;20.30;59.90
35497;DHT22;21609;49.298;6.844;2022-11-02T01:33:32;20.30;59.80
35497;DHT22;21609;49.298;6.844;2022-11-02T01:35:58;20.30;59.80
35497;DHT22;21609;49.298;6.844;2022-11-02T01:38:24;20.30;59.80
35497;DHT22;21609;49.298;6.844;2022-11-02T01:40:50;20.30;59.80
35497;DHT22;21609;49.298;6.844;2022-11-02T01:45:43;20.20;59.80
35497;DHT22;21609;49.298;6.844;2022-11-02T01:48:09;20.30;59.80
35497;DHT22;21609;49.298;6.844;2022-11-02T01:50:35;20.30;59.80
35497;DHT22;21609;49.298;6.844;2022-11-02T01:53:00;20.20;59.80
35497;DHT22;21609;49.298;6.844;2022-11-02T01:55:29;20.20;59.70
35497;DHT22;21609;49.298;6.844;2022-11-02T01:57:59;20.20;59.70
35497;DHT22;21609;49.298;6.844;2022-11-02T02:00:25;20.20;59.80
35497;DHT22;21609;49.298;6.844;2022-11-02T02:03:13;20.20;59.80
35497;DHT22;21609;49.298;6.844;2022-11-02T02:05:51;20.20;59.70
35497;DHT22;21609;49.298;6.844;2022-11-02T02:08:19;20.20;59.70
35497;DHT22;21609;49.298;6.844;2022-11-02T02:10:46;20.20;59.70
35497;DHT22;21609;49.298;6.844;2022-11-02T02:13:12;20.20;59.70
35497;DHT22;21609;49.298;6.844;2022-11-02T02:16:05;20.20;59.70
35497;DHT22;21609;49.298;6.844;2022-11-02T02:18:45;20.20;59.70
35497;DHT22;21609;49.298;6.844;2022-11-02T02:34:55;20.20;59.70
35497;DHT22;21609;49.298;6.844;2022-11-02T02:37:34;20.20;59.70
35497;DHT22;21609;49.298;6.844;2022-11-02T02:40:14;20.10;59.60
35497;DHT22;21609;49.298;6.844;2022-11-02T02:47:49;20.10;59.70
35497;DHT22;21609;49.298;6.844;2022-11-02T02:50:17;20.10;59.70
35497;DHT22;21609;49.298;6.844;2022-11-02T02:52:46;20.10;59.70
35497;DHT22;21609;49.298;6.844;2022-11-02T02:55:17;20.10;59.70
35497;DHT22;21609;49.298;6.844;2022-11-02T02:57:45;20.10;59.60
35497;DHT22;21609;49.298;6.844;2022-11-02T03:00:14;20.10;59.70
35497;DHT22;21609;49.298;6.844;2022-11-02T03:02:43;20.10;59.70
35497;DHT22;21609;49.298;6.844;2022-11-02T03:05:27;20.10;59.70
35497;DHT22;21609;49.298;6.844;2022-11-02T03:07:54;20.10;59.70
35497;DHT22;21609;49.298;6.844;2022-11-02T03:10:24;20.10;59.70
35497;DHT22;21609;49.298;6.844;2022-11-02T03:15:59;20.10;59.70
35497;DHT22;21609;49.298;6.844;2022-11-02T03:18:42;20.10;59.70
35497;DHT22;21609;49.298;6.844;2022-11-02T03:28:59;20.10;59.70
35497;DHT22;21609;49.298;6.844;2022-11-02T03:36:39;20.10;59.70
35497;DHT22;21609;49.298;6.844;2022-11-02T03:39:09;20.10;59.70
35497;DHT22;21609;49.298;6.844;2022-11-02T03:41:38;20.10;59.70
35497;DHT22;21609;49.298;6.844;2022-11-02T03:44:07;20.00;59.70
35497;DHT22;21609;49.298;6.844;2022-11-02T03:46:36;20.10;59.70
35497;DHT22;21609;49.298;6.844;2022-11-02T03:49:04;20.10;59.70
35497;DHT22;21609;49.298;6.844;2022-11-02T03:51:32;20.00;59.60
35497;DHT22;21609;49.298;6.844;2022-11-02T03:54:05;20.00;59.70
35497;DHT22;21609;49.298;6.844;2022-11-02T03:56:40;20.00;59.70
35497;DHT22;21609;49.298;6.844;2022-11-02T03:59:06;20.00;59.70
35497;DHT22;21609;49.298;6.844;2022-11-02T04:01:40;20.00;59.70
35497;DHT22;21609;49.298;6.844;2022-11-02T04:04:06;20.00;59.70
35497;DHT22;21609;49.298;6.844;2022-11-02T04:06:32;20.00;59.70
35497;DHT22;21609;49.298;6.844;2022-11-02T04:08:58;20.00;59.70
35497;DHT22;21609;49.298;6.844;2022-11-02T04:11:24;20.00;59.70
35497;DHT22;21609;49.298;6.844;2022-11-02T04:14:08;20.00;59.70
35497;DHT22;21609;49.298;6.844;2022-11-02T04:16:52;20.00;59.70
35497;DHT22;21609;49.298;6.844;2022-11-02T04:19:40;20.00;59.70
35497;DHT22;21609;49.298;6.844;2022-11-02T04:22:06;20.00;59.70
35497;DHT22;21609;49.298;6.844;2022-11-02T04:24:51;20.00;59.70
35497;DHT22;21609;49.298;6.844;2022-11-02T04:27:35;20.00;59.70
35497;DHT22;21609;49.298;6.844;2022-11-02T04:30:01;19.90;59.70
35497;DHT22;21609;49.298;6.844;2022-11-02T04:32:27;19.90;59.80
35497;DHT22;21609;49.298;6.844;2022-11-02T04:35:11;19.90;59.70
35497;DHT22;21609;49.298;6.844;2022-11-02T04:37:40;19.90;59.70
35497;DHT22;21609;49.298;6.844;2022-11-02T04:40:25;19.90;59.70
35497;DHT22;21609;49.298;6.844;2022-11-02T04:42:51;19.90;59.70
35497;DHT22;21609;49.298;6.844;2022-11-02T04:45:17;19.90;59.70
35497;DHT22;21609;49.298;6.844;2022-11-02T04:47:42;19.90;59.80
35497;DHT22;21609;49.298;6.844;2022-11-02T04:50:08;19.90;59.80
35497;DHT22;21609;49.298;6.844;2022-11-02T04:52:34;19.90;59.80
35497;DHT22;21609;49.298;6.844;2022-11-02T04:54:59;19.90;59.80
35497;DHT22;21609;49.298;6.844;2022-11-02T04:57:25;19.90;59.80
35497;DHT22;21609;49.298;6.844;2022-11-02T04:59:51;19.90;59.80
35497;DHT22;21609;49.298;6.844;2022-11-02T05:02:16;19.90;59.70
35497;DHT22;21609;49.298;6.844;2022-11-02T05:04:42;19.90;59.80
35497;DHT22;21609;49.298;6.844;2022-11-02T05:07:09;19.90;59.80
35497;DHT22;21609;49.298;6.844;2022-11-02T05:09:35;19.90;59.80
35497;DHT22;21609;49.298;6.844;2022-11-02T05:12:01;19.90;59.80
35497;DHT22;21609;49.298;6.844;2022-11-02T05:14:29;19.90;59.80
35497;DHT22;21609;49.298;6.844;2022-11-02T05:16:56;19.90;59.80
35497;DHT22;21609;49.298;6.844;2022-11-02T05:19:22;19.90;59.80
35497;DHT22;21609;49.298;6.844;2022-11-02T05:21:47;19.90;59.80
35497;DHT22;21609;49.298;6.844;2022-11-02T05:24:13;19.90;59.80
35497;DHT22;21609;49.298;6.844;2022-11-02T05:26:38;19.80;59.80
35497;DHT22;21609;49.298;6.844;2022-11-02T05:29:04;19.80;59.80
35497;DHT22;21609;49.298;6.844;2022-11-02T05:31:30;19.80;59.80
35497;DHT22;21609;49.298;6.844;2022-11-02T05:33:55;19.80;59.80
35497;DHT22;21609;49.298;6.844;2022-11-02T05:36:21;19.80;59.80
35497;DHT22;21609;49.298;6.844;2022-11-02T05:38:46;19.80;59.80
35497;DHT22;21609;49.298;6.844;2022-11-02T05:41:12;19.80;59.90
35497;DHT22;21609;49.298;6.844;2022-11-02T05:43:38;19.80;59.90
35497;DHT22;21609;49.298;6.844;2022-11-02T05:46:03;19.80;59.80
35497;DHT22;21609;49.298;6.844;2022-11-02T05:48:32;19.80;59.80
35497;DHT22;21609;49.298;6.844;2022-11-02T05:51:00;19.80;59.80
35497;DHT22;21609;49.298;6.844;2022-11-02T05:53:27;19.80;59.90
35497;DHT22;21609;49.298;6.844;2022-11-02T05:56:00;19.80;60.10
35497;DHT22;21609;49.298;6.844;2022-11-02T05:58:26;19.80;60.00
35497;DHT22;21609;49.298;6.844;2022-11-02T06:00:52;19.80;59.90
35497;DHT22;21609;49.298;6.844;2022-11-02T06:03:18;19.80;60.00
35497;DHT22;21609;49.298;6.844;2022-11-02T06:05:43;19.80;59.90
35497;DHT22;21609;49.298;6.844;2022-11-02T06:08:09;19.80;60.00
35497;DHT22;21609;49.298;6.844;2022-11-02T06:10:34;19.70;59.90
35497;DHT22;21609;49.298;6.844;2022-11-02T06:13:01;19.70;59.90
35497;DHT22;21609;49.298;6.844;2022-11-02T06:15:29;19.70;60.00
35497;DHT22;21609;49.298;6.844;2022-11-02T06:17:55;19.70;59.90
35497;DHT22;21609;49.298;6.844;2022-11-02T06:20:21;19.70;60.00
35497;DHT22;21609;49.298;6.844;2022-11-02T06:22:47;19.70;60.00
35497;DHT22;21609;49.298;6.844;2022-11-02T06:25:13;19.70;60.00
35497;DHT22;21609;49.298;6.844;2022-11-02T06:27:39;19.70;60.10
35497;DHT22;21609;49.298;6.844;2022-11-02T06:30:07;19.70;60.30
35497;DHT22;21609;49.298;6.844;2022-11-02T06:32:33;19.70;60.20
35497;DHT22;21609;49.298;6.844;2022-11-02T06:34:59;19.70;60.20
35497;DHT22;21609;49.298;6.844;2022-11-02T06:37:24;19.70;60.20
35497;DHT22;21609;49.298;6.844;2022-11-02T06:39:50;19.70;60.10
35497;DHT22;21609;49.298;6.844;2022-11-02T06:42:15;19.70;60.20
35497;DHT22;21609;49.298;6.844;2022-11-02T06:44:41;19.70;60.20
35497;DHT22;21609;49.298;6.844;2022-11-02T06:47:06;19.70;60.20
35497;DHT22;21609;49.298;6.844;2022-11-02T06:49:32;19.70;60.20
35497;DHT22;21609;49.298;6.844;2022-11-02T06:51:57;19.70;60.20
35497;DHT22;21609;49.298;6.844;2022-11-02T06:54:23;19.70;60.20
35497;DHT22;21609;49.298;6.844;2022-11-02T06:56:48;19.60;60.20
35497;DHT22;21609;49.298;6.844;2022-11-02T06:59:14;19.70;60.30
35497;DHT22;21609;49.298;6.844;2022-11-02T07:01:40;19.60;60.20
35497;DHT22;21609;49.298;6.844;2022-11-02T07:04:05;19.70;60.20
35497;DHT22;21609;49.298;6.844;2022-11-02T07:06:31;19.60;60.50
35497;DHT22;21609;49.298;6.844;2022-11-02T07:08:56;19.60;60.60
35497;DHT22;21609;49.298;6.844;2022-11-02T07:11:22;19.60;60.60
35497;DHT22;21609;49.298;6.844;2022-11-02T07:13:48;19.60;60.50
35497;DHT22;21609;49.298;6.844;2022-11-02T07:16:14;19.60;60.50
35497;DHT22;21609;49.298;6.844;2022-11-02T07:18:40;19.60;60.50
35497;DHT22;21609;49.298;6.844;2022-11-02T07:21:06;19.60;60.50
35497;DHT22;21609;49.298;6.844;2022-11-02T07:23:31;19.60;60.30
35497;DHT22;21609;49.298;6.844;2022-11-02T07:25:57;19.70;60.50
35497;DHT22;21609;49.298;6.844;2022-11-02T07:28:25;19.70;60.50
35497;DHT22;21609;49.298;6.844;2022-11-02T07:30:53;19.60;60.50
35497;DHT22;21609;49.298;6.844;2022-11-02T07:33:19;19.60;60.40
35497;DHT22;21609;49.298;6.844;2022-11-02T07:35:44;19.60;60.40
35497;DHT22;21609;49.298;6.844;2022-11-02T07:38:10;19.60;60.50
35497;DHT22;21609;49.298;6.844;2022-11-02T07:40:36;19.60;60.40
35497;DHT22;21609;49.298;6.844;2022-11-02T07:43:03;19.60;60.50
35497;DHT22;21609;49.298;6.844;2022-11-02T07:45:29;19.60;60.50
35497;DHT22;21609;49.298;6.844;2022-11-02T07:47:55;19.60;60.50
35497;DHT22;21609;49.298;6.844;2022-11-02T07:50:22;19.70;60.70
35497;DHT22;21609;49.298;6.844;2022-11-02T07:52:51;19.70;60.50
35497;DHT22;21609;49.298;6.844;2022-11-02T07:55:20;19.70;60.40
35497;DHT22;21609;49.298;6.844;2022-11-02T07:57:56;19.80;60.50
35497;DHT22;21609;49.298;6.844;2022-11-02T08:00:24;19.80;60.50
35497;DHT22;21609;49.298;6.844;2022-11-02T08:02:54;19.80;60.30
35497;DHT22;21609;49.298;6.844;2022-11-02T08:05:20;19.90;60.50
35497;DHT22;21609;49.298;6.844;2022-11-02T08:07:45;19.90;60.50
35497;DHT22;21609;49.298;6.844;2022-11-02T08:10:11;19.90;60.40
35497;DHT22;21609;49.298;6.844;2022-11-02T08:12:36;20.00;60.40
35497;DHT22;21609;49.298;6.844;2022-11-02T08:15:02;20.00;61.10
35497;DHT22;21609;49.298;6.844;2022-11-02T08:17:28;20.10;60.40
35497;DHT22;21609;49.298;6.844;2022-11-02T08:19:53;20.10;60.20
35497;DHT22;21609;49.298;6.844;2022-11-02T08:22:19;20.10;60.20
35497;DHT22;21609;49.298;6.844;2022-11-02T08:24:44;20.10;60.20
35497;DHT22;21609;49.298;6.844;2022-11-02T08:27:10;20.20;60.20
35497;DHT22;21609;49.298;6.844;2022-11-02T08:29:35;20.20;60.10
35497;DHT22;21609;49.298;6.844;2022-11-02T08:32:02;20.30;60.20
35497;DHT22;21609;49.298;6.844;2022-11-02T08:34:27;20.30;60.20
35497;DHT22;21609;49.298;6.844;2022-11-02T08:36:53;20.30;60.20
35497;DHT22;21609;49.298;6.844;2022-11-02T08:39:19;20.30;60.20
35497;DHT22;21609;49.298;6.844;2022-11-02T08:41:44;20.30;60.20
35497;DHT22;21609;49.298;6.844;2022-11-02T08:44:10;20.30;60.20
35497;DHT22;21609;49.298;6.844;2022-11-02T08:46:35;20.40;60.20
35497;DHT22;21609;49.298;6.844;2022-11-02T08:49:01;20.40;60.10
35497;DHT22;21609;49.298;6.844;2022-11-02T08:51:26;20.40;60.20
35497;DHT22;21609;49.298;6.844;2022-11-02T08:53:52;20.50;60.20
35497;DHT22;21609;49.298;6.844;2022-11-02T08:56:18;20.50;60.20
35497;DHT22;21609;49.298;6.844;2022-11-02T08:58:44;20.50;60.10
35497;DHT22;21609;49.298;6.844;2022-11-02T09:01:09;20.50;60.10
35497;DHT22;21609;49.298;6.844;2022-11-02T09:03:35;20.50;60.10
35497;DHT22;21609;49.298;6.844;2022-11-02T09:06:01;20.50;60.10
35497;DHT22;21609;49.298;6.844;2022-11-02T09:08:27;20.50;60.00
35497;DHT22;21609;49.298;6.844;2022-11-02T09:10:57;20.50;60.10
35497;DHT22;21609;49.298;6.844;2022-11-02T09:13:23;20.50;60.00
35497;DHT22;21609;49.298;6.844;2022-11-02T09:15:54;20.50;60.00
35497;DHT22;21609;49.298;6.844;2022-11-02T09:18:20;20.50;60.00
35497;DHT22;21609;49.298;6.844;2022-11-02T09:20:46;20.50;60.00
35497;DHT22;21609;49.298;6.844;2022-11-02T09:23:14;20.50;60.00
35497;DHT22;21609;49.298;6.844;2022-11-02T09:25:40;20.60;60.00
35497;DHT22;21609;49.298;6.844;2022-11-02T09:28:05;20.60;60.00
35497;DHT22;21609;49.298;6.844;2022-11-02T09:30:31;20.60;60.00
35497;DHT22;21609;49.298;6.844;2022-11-02T09:32:58;20.60;60.10
35497;DHT22;21609;49.298;6.844;2022-11-02T09:35:26;20.50;60.00
35497;DHT22;21609;49.298;6.844;2022-11-02T09:37:52;20.60;60.10
35497;DHT22;21609;49.298;6.844;2022-11-02T09:40:29;20.50;60.00
35497;DHT22;21609;49.298;6.844;2022-11-02T09:45:38;20.60;60.10
35497;DHT22;21609;49.298;6.844;2022-11-02T09:48:15;20.60;60.10
35497;DHT22;21609;49.298;6.844;2022-11-02T09:50:53;20.50;60.10
35497;DHT22;21609;49.298;6.844;2022-11-02T09:53:32;20.50;60.10
35497;DHT22;21609;49.298;6.844;2022-11-02T09:56:02;20.60;60.20
35497;DHT22;21609;49.298;6.844;2022-11-02T09:58:38;20.50;60.10
35497;DHT22;21609;49.298;6.844;2022-11-02T10:01:18;20.60;60.20
35497;DHT22;21609;49.298;6.844;2022-11-02T10:03:53;20.60;60.10
35497;DHT22;21609;49.298;6.844;2022-11-02T10:06:22;20.60;60.10
35497;DHT22;21609;49.298;6.844;2022-11-02T10:08:56;20.70;60.00
35497;DHT22;21609;49.298;6.844;2022-11-02T10:11:38;20.70;60.00
35497;DHT22;21609;49.298;6.844;2022-11-02T10:14:35;20.70;60.00
35497;DHT22;21609;49.298;6.844;2022-11-02T10:17:17;20.70;59.90
35497;DHT22;21609;49.298;6.844;2022-11-02T10:19:53;20.70;59.90
35497;DHT22;21609;49.298;6.844;2022-11-02T10:22:21;20.70;59.90
35497;DHT22;21609;49.298;6.844;2022-11-02T10:24:50;20.80;59.90
35497;DHT22;21609;49.298;6.844;2022-11-02T10:27:21;20.80;59.90
35497;DHT22;21609;49.298;6.844;2022-11-02T10:30:00;20.80;59.80
35497;DHT22;21609;49.298;6.844;2022-11-02T10:32:30;20.90;59.90
35497;DHT22;21609;49.298;6.844;2022-11-02T10:34:56;20.90;59.90
35497;DHT22;21609;49.298;6.844;2022-11-02T10:37:51;21.00;59.90
35497;DHT22;21609;49.298;6.844;2022-11-02T10:43:30;21.10;59.90
35497;DHT22;21609;49.298;6.844;2022-11-02T10:51:29;21.30;59.80
35497;DHT22;21609;49.298;6.844;2022-11-02T10:53:55;21.30;59.70
35497;DHT22;21609;49.298;6.844;2022-11-02T11:01:34;21.40;59.60
35497;DHT22;21609;49.298;6.844;2022-11-02T11:04:05;21.40;59.50
35497;DHT22;21609;49.298;6.844;2022-11-02T11:06:39;21.50;59.50
35497;DHT22;21609;49.298;6.844;2022-11-02T11:09:20;21.60;59.40
35497;DHT22;21609;49.298;6.844;2022-11-02T11:14:21;21.80;59.30
35497;DHT22;21609;49.298;6.844;2022-11-02T11:16:50;21.90;59.30
35497;DHT22;21609;49.298;6.844;2022-11-02T11:19:40;22.00;59.20
35497;DHT22;21609;49.298;6.844;2022-11-02T11:22:27;22.00;59.10
35497;DHT22;21609;49.298;6.844;2022-11-02T11:25:25;22.10;59.00
35497;DHT22;21609;49.298;6.844;2022-11-02T11:27:52;22.20;59.00
35497;DHT22;21609;49.298;6.844;2022-11-02T11:32:55;22.40;58.90
35497;DHT22;21609;49.298;6.844;2022-11-02T11:35:23;22.50;58.90
35497;DHT22;21609;49.298;6.844;2022-11-02T11:37:53;22.60;58.90
35497;DHT22;21609;49.298;6.844;2022-11-02T11:40:20;22.60;58.80
35497;DHT22;21609;49.298;6.844;2022-11-02T11:42:53;22.70;58.80
35497;DHT22;21609;49.298;6.844;2022-11-02T11:45:28;22.70;58.70
35497;DHT22;21609;49.298;6.844;2022-11-02T11:51:04;22.60;59.20
35497;DHT22;21609;49.298;6.844;2022-11-02T11:53:33;22.60;59.40
35497;DHT22;21609;49.298;6.844;2022-11-02T11:55:59;22.60;59.50
35497;DHT22;21609;49.298;6.844;2022-11-02T11:58:30;22.70;59.50
35497;DHT22;21609;49.298;6.844;2022-11-02T12:03:32;22.90;59.20
35497;DHT22;21609;49.298;6.844;2022-11-02T12:06:42;23.00;59.00
35497;DHT22;21609;49.298;6.844;2022-11-02T12:09:36;23.10;58.80
35497;DHT22;21609;49.298;6.844;2022-11-02T12:12:30;23.30;58.60
35497;DHT22;21609;49.298;6.844;2022-11-02T12:15:18;23.40;58.60
35497;DHT22;21609;49.298;6.844;2022-11-02T12:17:53;23.40;58.40
35497;DHT22;21609;49.298;6.844;2022-11-02T12:26:00;23.10;58.80
35497;DHT22;21609;49.298;6.844;2022-11-02T12:28:44;23.30;58.70
35497;DHT22;21609;49.298;6.844;2022-11-02T12:31:26;23.30;58.30
35497;DHT22;21609;49.298;6.844;2022-11-02T12:39:39;23.20;58.60
35497;DHT22;21609;49.298;6.844;2022-11-02T12:42:26;23.10;58.60
35497;DHT22;21609;49.298;6.844;2022-11-02T12:47:57;23.10;58.70
35497;DHT22;21609;49.298;6.844;2022-11-02T12:53:21;23.30;58.60
35497;DHT22;21609;49.298;6.844;2022-11-02T12:55:51;23.40;58.40
35497;DHT22;21609;49.298;6.844;2022-11-02T12:58:22;23.40;58.50
35497;DHT22;21609;49.298;6.844;2022-11-02T13:00:57;23.40;58.40
35497;DHT22;21609;49.298;6.844;2022-11-02T13:03:41;23.50;58.40
35497;DHT22;21609;49.298;6.844;2022-11-02T13:06:11;23.60;58.20
35497;DHT22;21609;49.298;6.844;2022-11-02T13:08:51;23.50;58.30
35497;DHT22;21609;49.298;6.844;2022-11-02T13:11:24;23.30;57.90
35497;DHT22;21609;49.298;6.844;2022-11-02T13:13:56;23.20;57.70
35497;DHT22;21609;49.298;6.844;2022-11-02T13:19:40;22.90;57.50
35497;DHT22;21609;49.298;6.844;2022-11-02T13:22:09;22.80;57.80
35497;DHT22;21609;49.298;6.844;2022-11-02T13:24:55;22.80;58.10
35497;DHT22;21609;49.298;6.844;2022-11-02T13:27:36;22.80;58.00
35497;DHT22;21609;49.298;6.844;2022-11-02T13:30:12;22.70;58.20
35497;DHT22;21609;49.298;6.844;2022-11-02T13:32:42;22.80;58.30
35497;DHT22;21609;49.298;6.844;2022-11-02T13:35:23;22.80;58.10
35497;DHT22;21609;49.298;6.844;2022-11-02T13:37:54;22.80;57.90
35497;DHT22;21609;49.298;6.844;2022-11-02T13:40:30;22.80;57.90
35497;DHT22;21609;49.298;6.844;2022-11-02T13:48:35;22.80;57.90
35497;DHT22;21609;49.298;6.844;2022-11-02T13:51:12;22.70;57.50
35497;DHT22;21609;49.298;6.844;2022-11-02T13:53:51;22.70;57.80
35497;DHT22;21609;49.298;6.844;2022-11-02T13:56:24;22.60;57.80
35497;DHT22;21609;49.298;6.844;2022-11-02T13:59:03;22.60;57.80
35497;DHT22;21609;49.298;6.844;2022-11-02T14:01:32;22.60;57.60
35497;DHT22;21609;49.298;6.844;2022-11-02T14:04:06;22.60;57.90
35497;DHT22;21609;49.298;6.844;2022-11-02T14:06:43;22.50;57.60
35497;DHT22;21609;49.298;6.844;2022-11-02T14:09:22;22.50;57.60
35497;DHT22;21609;49.298;6.844;2022-11-02T14:11:48;22.50;57.70
35497;DHT22;21609;49.298;6.844;2022-11-02T14:14:19;22.50;57.70
35497;DHT22;21609;49.298;6.844;2022-11-02T14:16:56;22.50;57.80
35497;DHT22;21609;49.298;6.844;2022-11-02T14:19:23;22.50;57.70
35497;DHT22;21609;49.298;6.844;2022-11-02T14:27:00;22.50;57.50
35497;DHT22;21609;49.298;6.844;2022-11-02T14:29:47;22.40;57.70
35497;DHT22;21609;49.298;6.844;2022-11-02T14:43:43;22.30;57.70
35497;DHT22;21609;49.298;6.844;2022-11-02T14:46:52;22.30;57.80
35497;DHT22;21609;49.298;6.844;2022-11-02T14:49:27;22.40;57.70
35497;DHT22;21609;49.298;6.844;2022-11-02T14:52:00;22.30;57.60
35497;DHT22;21609;49.298;6.844;2022-11-02T14:54:28;22.30;57.90
35497;DHT22;21609;49.298;6.844;2022-11-02T14:56:59;22.30;58.00
35497;DHT22;21609;49.298;6.844;2022-11-02T15:02:00;22.30;57.80
35497;DHT22;21609;49.298;6.844;2022-11-02T15:04:27;22.20;57.80
35497;DHT22;21609;49.298;6.844;2022-11-02T15:06:58;22.20;57.90
35497;DHT22;21609;49.298;6.844;2022-11-02T15:12:29;22.20;57.90
35497;DHT22;21609;49.298;6.844;2022-11-02T15:14:59;22.20;58.00
35497;DHT22;21609;49.298;6.844;2022-11-02T15:27:39;22.10;58.30
35497;DHT22;21609;49.298;6.844;2022-11-02T15:30:08;22.00;58.20
35497;DHT22;21609;49.298;6.844;2022-11-02T15:32:38;22.00;58.30
35497;DHT22;21609;49.298;6.844;2022-11-02T15:35:09;21.90;58.30
35497;DHT22;21609;49.298;6.844;2022-11-02T15:37:37;21.90;58.50
35497;DHT22;21609;49.298;6.844;2022-11-02T15:40:17;21.90;58.50
35497;DHT22;21609;49.298;6.844;2022-11-02T15:45:51;21.80;58.40
35497;DHT22;21609;49.298;6.844;2022-11-02T15:48:38;21.80;58.40
35497;DHT22;21609;49.298;6.844;2022-11-02T16:02:18;21.70;58.40
35497;DHT22;21609;49.298;6.844;2022-11-02T16:04:47;21.70;58.50
35497;DHT22;21609;49.298;6.844;2022-11-02T16:07:15;21.70;58.50
35497;DHT22;21609;49.298;6.844;2022-11-02T16:09:42;21.70;58.60
35497;DHT22;21609;49.298;6.844;2022-11-02T16:14:44;21.60;58.60
35497;DHT22;21609;49.298;6.844;2022-11-02T16:17:29;21.60;58.70
35497;DHT22;21609;49.298;6.844;2022-11-02T16:20:16;21.60;58.70
35497;DHT22;21609;49.298;6.844;2022-11-02T16:23:02;21.60;58.70
35497;DHT22;21609;49.298;6.844;2022-11-02T16:30:36;21.50;58.80
35497;DHT22;21609;49.298;6.844;2022-11-02T16:33:02;21.50;58.90
35497;DHT22;21609;49.298;6.844;2022-11-02T16:35:30;21.50;58.80
35497;DHT22;21609;49.298;6.844;2022-11-02T16:37:55;21.50;58.80
35497;DHT22;21609;49.298;6.844;2022-11-02T16:40:21;21.40;58.80
35497;DHT22;21609;49.298;6.844;2022-11-02T16:42:48;21.40;58.80
35497;DHT22;21609;49.298;6.844;2022-11-02T16:45:42;21.40;58.70
35497;DHT22;21609;49.298;6.844;2022-11-02T16:48:16;21.40;58.70
35497;DHT22;21609;49.298;6.844;2022-11-02T16:53:28;21.40;58.90
35497;DHT22;21609;49.298;6.844;2022-11-02T16:55:56;21.40;58.90
35497;DHT22;21609;49.298;6.844;2022-11-02T16:58:25;21.40;58.80
35497;DHT22;21609;49.298;6.844;2022-11-02T17:01:01;21.40;58.80
35497;DHT22;21609;49.298;6.844;2022-11-02T17:03:33;21.40;58.80
35497;DHT22;21609;49.298;6.844;2022-11-02T17:06:01;21.40;58.80
35497;DHT22;21609;49.298;6.844;2022-11-02T17:08:33;21.40;58.90
35497;DHT22;21609;49.298;6.844;2022-11-02T17:11:02;21.30;59.30
35497;DHT22;21609;49.298;6.844;2022-11-02T17:13:34;21.30;58.90
35497;DHT22;21609;49.298;6.844;2022-11-02T17:16:10;21.30;58.90
35497;DHT22;21609;49.298;6.844;2022-11-02T17:18:36;21.30;58.90
35497;DHT22;21609;49.298;6.844;2022-11-02T17:23:37;21.30;58.90
35497;DHT22;21609;49.298;6.844;2022-11-02T17:28:48;21.30;58.90
35497;DHT22;21609;49.298;6.844;2022-11-02T17:31:20;21.30;58.90
35497;DHT22;21609;49.298;6.844;2022-11-02T17:33:46;21.20;58.90
35497;DHT22;21609;49.298;6.844;2022-11-02T17:36:13;21.20;58.90
35497;DHT22;21609;49.298;6.844;2022-11-02T17:38:39;21.20;58.90
35497;DHT22;21609;49.298;6.844;2022-11-02T17:41:05;21.20;58.90
35497;DHT22;21609;49.298;6.844;2022-11-02T17:43:51;21.20;58.90
35497;DHT22;21609;49.298;6.844;2022-11-02T17:46:16;21.20;58.90
35497;DHT22;21609;49.298;6.844;2022-11-02T17:48:42;21.10;58.90
35497;DHT22;21609;49.298;6.844;2022-11-02T17:51:09;21.10;58.90
35497;DHT22;21609;49.298;6.844;2022-11-02T17:53:36;21.10;58.90
35497;DHT22;21609;49.298;6.844;2022-11-02T17:56:01;21.10;59.00
35497;DHT22;21609;49.298;6.844;2022-11-02T17:58:27;21.10;58.90
35497;DHT22;21609;49.298;6.844;2022-11-02T18:00:53;21.10;58.90
35497;DHT22;21609;49.298;6.844;2022-11-02T18:03:19;21.10;58.90
35497;DHT22;21609;49.298;6.844;2022-11-02T18:05:49;21.10;58.90
35497;DHT22;21609;49.298;6.844;2022-11-02T18:08:17;21.10;58.90
35497;DHT22;21609;49.298;6.844;2022-11-02T18:10:45;21.10;59.00
35497;DHT22;21609;49.298;6.844;2022-11-02T18:13:13;21.10;59.10
35497;DHT22;21609;49.298;6.844;2022-11-02T18:15:39;21.10;59.00
35497;DHT22;21609;49.298;6.844;2022-11-02T18:18:05;21.10;59.00
35497;DHT22;21609;49.298;6.844;2022-11-02T18:20:30;21.10;59.00